sensor_id;sensor_type;location;lat;lon;timestamp;P1;durP1;ratioP1;P2;durP2;ratioP2
3081;SDS011;1551;51.046;7.010;2023-03-16T00:02:13;6.55;;;3.20;;
3081;SDS011;1551;51.046;7.010;2023-03-16T00:05:02;6.82;;;3.90;;
3081;SDS011;1551;51.046;7.010;2023-03-16T00:07:51;5.63;;;3.60;;
3081;SDS011;1551;51.046;7.010;2023-03-16T00:10:40;4.85;;;3.13;;
3081;SDS011;1551;51.046;7.010;2023-03-16T00:13:34;4.90;;;3.20;;
3081;SDS011;1551;51.046;7.010;2023-03-16T00:16:23;8.00;;;3.65;;
3081;SDS011;1551;51.046;7.010;2023-03-16T00:19:12;5.65;;;3.50;;
3081;SDS011;1551;51.046;7.010;2023-03-16T00:22:01;5.72;;;3.80;;
3081;SDS011;1551;51.046;7.010;2023-03-16T00:24:50;6.60;;;3.50;;
3081;SDS011;1551;51.046;7.010;2023-03-16T00:27:40;6.80;;;3.22;;
3081;SDS011;1551;51.046;7.010;2023-03-16T00:30:29;5.53;;;3.55;;
3081;SDS011;1551;51.046;7.010;2023-03-16T00:33:20;5.55;;;3.50;;
3081;SDS011;1551;51.046;7.010;2023-03-16T00:36:10;3.85;;;3.08;;
3081;SDS011;1551;51.046;7.010;2023-03-16T00:39:00;8.17;;;3.60;;
3081;SDS011;1551;51.046;7.010;2023-03-16T00:41:49;6.60;;;3.47;;
3081;SDS011;1551;51.046;7.010;2023-03-16T00:44:38;5.97;;;3.25;;
3081;SDS011;1551;51.046;7.010;2023-03-16T00:47:30;4.88;;;3.30;;
3081;SDS011;1551;51.046;7.010;2023-03-16T00:50:20;5.07;;;3.30;;
3081;SDS011;1551;51.046;7.010;2023-03-16T00:53:10;5.28;;;3.42;;
3081;SDS011;1551;51.046;7.010;2023-03-16T00:55:59;6.20;;;3.35;;
3081;SDS011;1551;51.046;7.010;2023-03-16T00:58:53;7.00;;;3.80;;
3081;SDS011;1551;51.046;7.010;2023-03-16T01:01:45;5.90;;;3.10;;
3081;SDS011;1551;51.046;7.010;2023-03-16T01:04:34;5.80;;;3.17;;
3081;SDS011;1551;51.046;7.010;2023-03-16T01:07:23;4.70;;;3.90;;
3081;SDS011;1551;51.046;7.010;2023-03-16T01:10:13;5.03;;;3.25;;
3081;SDS011;1551;51.046;7.010;2023-03-16T01:13:02;4.82;;;3.15;;
3081;SDS011;1551;51.046;7.010;2023-03-16T01:15:52;6.88;;;3.10;;
3081;SDS011;1551;51.046;7.010;2023-03-16T01:18:41;5.68;;;2.97;;
3081;SDS011;1551;51.046;7.010;2023-03-16T01:21:30;5.60;;;3.03;;
3081;SDS011;1551;51.046;7.010;2023-03-16T01:24:21;5.93;;;3.17;;
3081;SDS011;1551;51.046;7.010;2023-03-16T01:27:12;5.22;;;3.33;;
3081;SDS011;1551;51.046;7.010;2023-03-16T01:30:03;4.57;;;2.95;;
3081;SDS011;1551;51.046;7.010;2023-03-16T01:32:53;5.57;;;2.85;;
3081;SDS011;1551;51.046;7.010;2023-03-16T01:35:42;4.18;;;3.08;;
3081;SDS011;1551;51.046;7.010;2023-03-16T01:38:40;3.83;;;2.80;;
3081;SDS011;1551;51.046;7.010;2023-03-16T01:41:30;5.90;;;3.35;;
3081;SDS011;1551;51.046;7.010;2023-03-16T01:44:21;4.63;;;2.92;;
3081;SDS011;1551;51.046;7.010;2023-03-16T01:47:16;6.10;;;2.95;;
3081;SDS011;1551;51.046;7.010;2023-03-16T01:50:06;6.63;;;3.50;;
3081;SDS011;1551;51.046;7.010;2023-03-16T01:52:56;7.93;;;3.00;;
3081;SDS011;1551;51.046;7.010;2023-03-16T01:55:46;5.13;;;3.30;;
3081;SDS011;1551;51.046;7.010;2023-03-16T01:58:37;4.40;;;2.70;;
3081;SDS011;1551;51.046;7.010;2023-03-16T02:01:26;4.10;;;2.40;;
3081;SDS011;1551;51.046;7.010;2023-03-16T02:07:43;4.65;;;2.70;;
3081;SDS011;1551;51.046;7.010;2023-03-16T02:10:35;6.00;;;3.00;;
3081;SDS011;1551;51.046;7.010;2023-03-16T02:13:26;6.07;;;2.47;;
3081;SDS011;1551;51.046;7.010;2023-03-16T02:16:17;3.88;;;2.72;;
3081;SDS011;1551;51.046;7.010;2023-03-16T02:19:10;4.30;;;3.00;;
3081;SDS011;1551;51.046;7.010;2023-03-16T02:22:05;7.22;;;3.10;;
3081;SDS011;1551;51.046;7.010;2023-03-16T02:24:56;7.25;;;2.70;;
3081;SDS011;1551;51.046;7.010;2023-03-16T02:27:49;4.68;;;3.00;;
3081;SDS011;1551;51.046;7.010;2023-03-16T02:30:53;5.38;;;3.22;;
3081;SDS011;1551;51.046;7.010;2023-03-16T02:33:44;7.00;;;2.90;;
3081;SDS011;1551;51.046;7.010;2023-03-16T02:36:35;3.70;;;2.30;;
3081;SDS011;1551;51.046;7.010;2023-03-16T02:39:27;4.50;;;2.80;;
3081;SDS011;1551;51.046;7.010;2023-03-16T02:42:17;4.65;;;3.20;;
3081;SDS011;1551;51.046;7.010;2023-03-16T02:45:10;7.30;;;2.90;;
3081;SDS011;1551;51.046;7.010;2023-03-16T02:48:01;3.63;;;2.67;;
3081;SDS011;1551;51.046;7.010;2023-03-16T02:50:55;6.50;;;2.90;;
3081;SDS011;1551;51.046;7.010;2023-03-16T02:53:44;4.57;;;2.60;;
3081;SDS011;1551;51.046;7.010;2023-03-16T02:56:33;4.30;;;2.33;;
3081;SDS011;1551;51.046;7.010;2023-03-16T02:59:22;4.35;;;2.70;;
3081;SDS011;1551;51.046;7.010;2023-03-16T03:02:11;4.90;;;2.88;;
3081;SDS011;1551;51.046;7.010;2023-03-16T03:05:00;4.50;;;2.70;;
3081;SDS011;1551;51.046;7.010;2023-03-16T03:07:49;4.97;;;2.80;;
3081;SDS011;1551;51.046;7.010;2023-03-16T03:10:39;5.60;;;2.70;;
3081;SDS011;1551;51.046;7.010;2023-03-16T03:13:28;5.28;;;3.10;;
3081;SDS011;1551;51.046;7.010;2023-03-16T03:16:18;5.70;;;2.50;;
3081;SDS011;1551;51.046;7.010;2023-03-16T03:19:07;4.90;;;2.90;;
3081;SDS011;1551;51.046;7.010;2023-03-16T03:22:00;6.00;;;2.70;;
3081;SDS011;1551;51.046;7.010;2023-03-16T03:24:53;3.95;;;2.67;;
3081;SDS011;1551;51.046;7.010;2023-03-16T03:27:42;5.28;;;2.60;;
3081;SDS011;1551;51.046;7.010;2023-03-16T03:30:34;7.95;;;3.17;;
3081;SDS011;1551;51.046;7.010;2023-03-16T03:33:25;4.83;;;2.70;;
3081;SDS011;1551;51.046;7.010;2023-03-16T03:36:15;3.78;;;2.50;;
3081;SDS011;1551;51.046;7.010;2023-03-16T03:39:07;8.85;;;3.15;;
3081;SDS011;1551;51.046;7.010;2023-03-16T03:41:57;5.75;;;2.80;;
3081;SDS011;1551;51.046;7.010;2023-03-16T03:44:46;3.80;;;2.40;;
3081;SDS011;1551;51.046;7.010;2023-03-16T03:47:35;3.85;;;2.55;;
3081;SDS011;1551;51.046;7.010;2023-03-16T03:50:26;5.00;;;3.17;;
3081;SDS011;1551;51.046;7.010;2023-03-16T03:53:24;5.32;;;2.70;;
3081;SDS011;1551;51.046;7.010;2023-03-16T03:56:32;7.57;;;2.83;;
3081;SDS011;1551;51.046;7.010;2023-03-16T03:59:21;5.18;;;2.90;;
3081;SDS011;1551;51.046;7.010;2023-03-16T04:02:32;4.82;;;2.60;;
3081;SDS011;1551;51.046;7.010;2023-03-16T04:05:21;5.82;;;3.03;;
3081;SDS011;1551;51.046;7.010;2023-03-16T04:08:12;4.03;;;2.53;;
3081;SDS011;1551;51.046;7.010;2023-03-16T04:11:02;5.18;;;2.97;;
3081;SDS011;1551;51.046;7.010;2023-03-16T04:13:51;4.40;;;2.60;;
3081;SDS011;1551;51.046;7.010;2023-03-16T04:16:41;5.82;;;2.97;;
3081;SDS011;1551;51.046;7.010;2023-03-16T04:19:33;4.88;;;3.00;;
3081;SDS011;1551;51.046;7.010;2023-03-16T04:22:22;5.03;;;2.90;;
3081;SDS011;1551;51.046;7.010;2023-03-16T04:25:14;5.37;;;2.73;;
3081;SDS011;1551;51.046;7.010;2023-03-16T04:28:06;6.22;;;2.85;;
3081;SDS011;1551;51.046;7.010;2023-03-16T04:31:01;5.22;;;2.53;;
3081;SDS011;1551;51.046;7.010;2023-03-16T04:33:57;5.22;;;2.90;;
3081;SDS011;1551;51.046;7.010;2023-03-16T04:36:47;7.57;;;3.20;;
3081;SDS011;1551;51.046;7.010;2023-03-16T04:39:36;4.95;;;2.97;;
3081;SDS011;1551;51.046;7.010;2023-03-16T04:42:26;6.68;;;3.40;;
3081;SDS011;1551;51.046;7.010;2023-03-16T04:45:15;4.38;;;3.30;;
3081;SDS011;1551;51.046;7.010;2023-03-16T04:48:09;4.70;;;3.60;;
3081;SDS011;1551;51.046;7.010;2023-03-16T04:50:59;5.90;;;3.50;;
3081;SDS011;1551;51.046;7.010;2023-03-16T04:53:53;5.90;;;3.15;;
3081;SDS011;1551;51.046;7.010;2023-03-16T04:56:49;6.77;;;3.70;;
3081;SDS011;1551;51.046;7.010;2023-03-16T04:59:50;4.70;;;3.50;;
3081;SDS011;1551;51.046;7.010;2023-03-16T05:02:52;5.97;;;3.65;;
3081;SDS011;1551;51.046;7.010;2023-03-16T05:05:41;5.72;;;3.55;;
3081;SDS011;1551;51.046;7.010;2023-03-16T05:08:32;5.57;;;4.20;;
3081;SDS011;1551;51.046;7.010;2023-03-16T05:11:21;9.05;;;3.67;;
3081;SDS011;1551;51.046;7.010;2023-03-16T05:14:17;6.25;;;4.10;;
3081;SDS011;1551;51.046;7.010;2023-03-16T05:17:23;6.13;;;3.70;;
3081;SDS011;1551;51.046;7.010;2023-03-16T05:20:13;6.57;;;3.70;;
3081;SDS011;1551;51.046;7.010;2023-03-16T05:23:06;6.75;;;3.90;;
3081;SDS011;1551;51.046;7.010;2023-03-16T05:25:59;7.68;;;4.25;;
3081;SDS011;1551;51.046;7.010;2023-03-16T05:28:51;5.50;;;3.60;;
3081;SDS011;1551;51.046;7.010;2023-03-16T05:31:44;5.32;;;3.78;;
3081;SDS011;1551;51.046;7.010;2023-03-16T05:34:37;6.93;;;4.00;;
3081;SDS011;1551;51.046;7.010;2023-03-16T05:37:27;5.70;;;4.00;;
3081;SDS011;1551;51.046;7.010;2023-03-16T05:40:17;6.65;;;4.45;;
3081;SDS011;1551;51.046;7.010;2023-03-16T05:43:10;5.63;;;4.00;;
3081;SDS011;1551;51.046;7.010;2023-03-16T05:46:05;5.57;;;4.20;;
3081;SDS011;1551;51.046;7.010;2023-03-16T05:48:55;5.90;;;4.43;;
3081;SDS011;1551;51.046;7.010;2023-03-16T05:51:46;6.20;;;4.53;;
3081;SDS011;1551;51.046;7.010;2023-03-16T05:54:36;7.10;;;4.50;;
3081;SDS011;1551;51.046;7.010;2023-03-16T05:57:25;6.60;;;4.32;;
3081;SDS011;1551;51.046;7.010;2023-03-16T06:00:15;5.53;;;4.10;;
3081;SDS011;1551;51.046;7.010;2023-03-16T06:03:14;6.72;;;4.20;;
3081;SDS011;1551;51.046;7.010;2023-03-16T06:06:04;6.93;;;4.60;;
3081;SDS011;1551;51.046;7.010;2023-03-16T06:09:00;6.78;;;4.05;;
3081;SDS011;1551;51.046;7.010;2023-03-16T06:11:49;5.35;;;4.05;;
3081;SDS011;1551;51.046;7.010;2023-03-16T06:14:39;7.50;;;4.25;;
3081;SDS011;1551;51.046;7.010;2023-03-16T06:17:29;6.85;;;4.90;;
3081;SDS011;1551;51.046;7.010;2023-03-16T06:20:18;7.23;;;4.60;;
3081;SDS011;1551;51.046;7.010;2023-03-16T06:23:08;4.90;;;4.07;;
3081;SDS011;1551;51.046;7.010;2023-03-16T06:25:57;8.40;;;4.60;;
3081;SDS011;1551;51.046;7.010;2023-03-16T06:28:48;8.02;;;4.07;;
3081;SDS011;1551;51.046;7.010;2023-03-16T06:31:38;6.03;;;4.07;;
3081;SDS011;1551;51.046;7.010;2023-03-16T06:34:28;5.53;;;4.30;;
3081;SDS011;1551;51.046;7.010;2023-03-16T06:37:18;6.65;;;4.32;;
3081;SDS011;1551;51.046;7.010;2023-03-16T06:40:08;6.00;;;4.25;;
3081;SDS011;1551;51.046;7.010;2023-03-16T06:42:58;6.00;;;3.83;;
3081;SDS011;1551;51.046;7.010;2023-03-16T06:45:47;5.45;;;4.00;;
3081;SDS011;1551;51.046;7.010;2023-03-16T06:48:36;6.15;;;4.55;;
3081;SDS011;1551;51.046;7.010;2023-03-16T06:51:26;6.18;;;4.25;;
3081;SDS011;1551;51.046;7.010;2023-03-16T06:54:16;7.05;;;4.25;;
3081;SDS011;1551;51.046;7.010;2023-03-16T06:57:05;6.15;;;4.35;;
3081;SDS011;1551;51.046;7.010;2023-03-16T06:59:54;5.20;;;4.10;;
3081;SDS011;1551;51.046;7.010;2023-03-16T07:02:43;5.75;;;4.00;;
3081;SDS011;1551;51.046;7.010;2023-03-16T07:05:34;5.40;;;4.60;;
3081;SDS011;1551;51.046;7.010;2023-03-16T07:08:25;5.95;;;4.35;;
3081;SDS011;1551;51.046;7.010;2023-03-16T07:11:14;7.28;;;4.60;;
3081;SDS011;1551;51.046;7.010;2023-03-16T07:14:03;7.82;;;4.70;;
3081;SDS011;1551;51.046;7.010;2023-03-16T07:16:54;7.15;;;4.70;;
3081;SDS011;1551;51.046;7.010;2023-03-16T07:19:45;5.50;;;4.60;;
3081;SDS011;1551;51.046;7.010;2023-03-16T07:22:36;7.30;;;4.90;;
3081;SDS011;1551;51.046;7.010;2023-03-16T07:25:26;7.00;;;5.60;;
3081;SDS011;1551;51.046;7.010;2023-03-16T07:28:17;6.22;;;4.47;;
3081;SDS011;1551;51.046;7.010;2023-03-16T07:31:07;6.57;;;4.50;;
3081;SDS011;1551;51.046;7.010;2023-03-16T07:34:01;7.70;;;4.70;;
3081;SDS011;1551;51.046;7.010;2023-03-16T07:37:00;6.57;;;4.68;;
3081;SDS011;1551;51.046;7.010;2023-03-16T07:39:53;7.28;;;5.30;;
3081;SDS011;1551;51.046;7.010;2023-03-16T07:42:42;8.47;;;5.03;;
3081;SDS011;1551;51.046;7.010;2023-03-16T07:45:36;6.85;;;4.90;;
3081;SDS011;1551;51.046;7.010;2023-03-16T07:48:26;6.87;;;4.60;;
3081;SDS011;1551;51.046;7.010;2023-03-16T07:51:22;6.00;;;4.23;;
3081;SDS011;1551;51.046;7.010;2023-03-16T07:54:12;6.60;;;4.70;;
3081;SDS011;1551;51.046;7.010;2023-03-16T07:57:02;7.40;;;4.85;;
3081;SDS011;1551;51.046;7.010;2023-03-16T07:59:57;7.60;;;4.80;;
3081;SDS011;1551;51.046;7.010;2023-03-16T08:02:49;6.20;;;4.65;;
3081;SDS011;1551;51.046;7.010;2023-03-16T08:05:39;8.65;;;5.10;;
3081;SDS011;1551;51.046;7.010;2023-03-16T08:08:35;8.63;;;5.38;;
3081;SDS011;1551;51.046;7.010;2023-03-16T08:11:24;6.10;;;4.33;;
3081;SDS011;1551;51.046;7.010;2023-03-16T08:14:20;6.93;;;4.60;;
3081;SDS011;1551;51.046;7.010;2023-03-16T08:17:28;6.72;;;4.50;;
3081;SDS011;1551;51.046;7.010;2023-03-16T08:20:18;8.00;;;4.90;;
3081;SDS011;1551;51.046;7.010;2023-03-16T08:23:09;7.32;;;5.20;;
3081;SDS011;1551;51.046;7.010;2023-03-16T08:26:03;6.07;;;4.55;;
3081;SDS011;1551;51.046;7.010;2023-03-16T08:28:56;7.10;;;4.97;;
3081;SDS011;1551;51.046;7.010;2023-03-16T08:31:53;7.35;;;4.75;;
3081;SDS011;1551;51.046;7.010;2023-03-16T08:34:50;5.53;;;4.57;;
3081;SDS011;1551;51.046;7.010;2023-03-16T08:37:40;5.67;;;4.33;;
3081;SDS011;1551;51.046;7.010;2023-03-16T08:40:30;6.65;;;4.82;;
3081;SDS011;1551;51.046;7.010;2023-03-16T08:43:23;6.50;;;5.00;;
3081;SDS011;1551;51.046;7.010;2023-03-16T08:46:13;6.97;;;5.23;;
3081;SDS011;1551;51.046;7.010;2023-03-16T08:49:11;6.13;;;4.90;;
3081;SDS011;1551;51.046;7.010;2023-03-16T08:52:02;5.35;;;4.60;;
3081;SDS011;1551;51.046;7.010;2023-03-16T08:54:52;7.25;;;5.20;;
3081;SDS011;1551;51.046;7.010;2023-03-16T08:57:41;5.82;;;4.82;;
3081;SDS011;1551;51.046;7.010;2023-03-16T09:00:33;8.10;;;4.82;;
3081;SDS011;1551;51.046;7.010;2023-03-16T09:03:22;6.20;;;5.10;;
3081;SDS011;1551;51.046;7.010;2023-03-16T09:06:12;9.52;;;5.82;;
3081;SDS011;1551;51.046;7.010;2023-03-16T09:09:03;5.73;;;4.73;;
3081;SDS011;1551;51.046;7.010;2023-03-16T09:11:52;6.75;;;5.03;;
3081;SDS011;1551;51.046;7.010;2023-03-16T09:14:41;7.18;;;5.10;;
3081;SDS011;1551;51.046;7.010;2023-03-16T09:17:32;6.88;;;5.20;;
3081;SDS011;1551;51.046;7.010;2023-03-16T09:20:22;7.07;;;4.72;;
3081;SDS011;1551;51.046;7.010;2023-03-16T09:23:11;7.32;;;5.38;;
3081;SDS011;1551;51.046;7.010;2023-03-16T09:26:02;6.60;;;5.00;;
3081;SDS011;1551;51.046;7.010;2023-03-16T09:28:55;6.82;;;5.10;;
3081;SDS011;1551;51.046;7.010;2023-03-16T09:31:44;6.70;;;5.30;;
3081;SDS011;1551;51.046;7.010;2023-03-16T09:34:34;6.80;;;5.30;;
3081;SDS011;1551;51.046;7.010;2023-03-16T09:37:23;5.70;;;4.50;;
3081;SDS011;1551;51.046;7.010;2023-03-16T09:40:18;6.95;;;5.45;;
3081;SDS011;1551;51.046;7.010;2023-03-16T09:46:25;9.70;;;5.70;;
3081;SDS011;1551;51.046;7.010;2023-03-16T09:49:20;7.35;;;4.75;;
3081;SDS011;1551;51.046;7.010;2023-03-16T09:58:22;5.85;;;4.78;;
3081;SDS011;1551;51.046;7.010;2023-03-16T10:01:17;6.50;;;4.38;;
3081;SDS011;1551;51.046;7.010;2023-03-16T10:04:26;6.22;;;4.53;;
3081;SDS011;1551;51.046;7.010;2023-03-16T10:07:41;6.75;;;4.50;;
3081;SDS011;1551;51.046;7.010;2023-03-16T10:10:56;6.90;;;4.40;;
3081;SDS011;1551;51.046;7.010;2023-03-16T10:17:28;5.50;;;3.90;;
3081;SDS011;1551;51.046;7.010;2023-03-16T10:20:21;8.60;;;4.60;;
3081;SDS011;1551;51.046;7.010;2023-03-16T10:23:22;5.70;;;4.60;;
3081;SDS011;1551;51.046;7.010;2023-03-16T10:26:13;5.82;;;3.80;;
3081;SDS011;1551;51.046;7.010;2023-03-16T10:29:10;6.03;;;4.50;;
3081;SDS011;1551;51.046;7.010;2023-03-16T10:32:01;6.93;;;4.40;;
3081;SDS011;1551;51.046;7.010;2023-03-16T10:35:10;6.35;;;4.10;;
3081;SDS011;1551;51.046;7.010;2023-03-16T10:38:25;7.57;;;4.50;;
3081;SDS011;1551;51.046;7.010;2023-03-16T10:41:27;6.82;;;4.43;;
3081;SDS011;1551;51.046;7.010;2023-03-16T10:44:22;6.90;;;4.10;;
3081;SDS011;1551;51.046;7.010;2023-03-16T10:47:21;7.13;;;4.35;;
3081;SDS011;1551;51.046;7.010;2023-03-16T10:50:12;6.97;;;4.22;;
3081;SDS011;1551;51.046;7.010;2023-03-16T10:53:08;5.10;;;3.60;;
3081;SDS011;1551;51.046;7.010;2023-03-16T10:56:19;5.40;;;3.67;;
3081;SDS011;1551;51.046;7.010;2023-03-16T10:59:15;6.43;;;4.00;;
3081;SDS011;1551;51.046;7.010;2023-03-16T11:02:20;5.60;;;3.70;;
3081;SDS011;1551;51.046;7.010;2023-03-16T11:05:12;5.63;;;4.10;;
3081;SDS011;1551;51.046;7.010;2023-03-16T11:08:08;5.57;;;4.07;;
3081;SDS011;1551;51.046;7.010;2023-03-16T11:11:25;7.47;;;4.50;;
3081;SDS011;1551;51.046;7.010;2023-03-16T11:14:18;5.20;;;4.10;;
3081;SDS011;1551;51.046;7.010;2023-03-16T11:17:11;6.90;;;4.10;;
3081;SDS011;1551;51.046;7.010;2023-03-16T11:20:08;5.53;;;3.90;;
3081;SDS011;1551;51.046;7.010;2023-03-16T11:23:05;6.18;;;3.90;;
3081;SDS011;1551;51.046;7.010;2023-03-16T11:26:04;5.80;;;3.72;;
3081;SDS011;1551;51.046;7.010;2023-03-16T11:29:01;5.75;;;3.45;;
3081;SDS011;1551;51.046;7.010;2023-03-16T11:32:04;5.97;;;3.25;;
3081;SDS011;1551;51.046;7.010;2023-03-16T11:34:58;6.07;;;3.40;;
3081;SDS011;1551;51.046;7.010;2023-03-16T11:41:03;5.07;;;3.80;;
3081;SDS011;1551;51.046;7.010;2023-03-16T11:47:22;5.90;;;3.38;;
3081;SDS011;1551;51.046;7.010;2023-03-16T11:50:55;8.02;;;3.33;;
3081;SDS011;1551;51.046;7.010;2023-03-16T11:57:40;4.88;;;3.00;;
3081;SDS011;1551;51.046;7.010;2023-03-16T12:13:13;3.92;;;2.40;;
3081;SDS011;1551;51.046;7.010;2023-03-16T12:16:20;4.30;;;2.50;;
3081;SDS011;1551;51.046;7.010;2023-03-16T12:19:15;3.35;;;2.40;;
3081;SDS011;1551;51.046;7.010;2023-03-16T12:22:15;3.25;;;2.20;;
3081;SDS011;1551;51.046;7.010;2023-03-16T12:25:17;3.80;;;2.50;;
3081;SDS011;1551;51.046;7.010;2023-03-16T12:28:13;3.23;;;2.37;;
3081;SDS011;1551;51.046;7.010;2023-03-16T12:31:18;5.78;;;2.60;;
3081;SDS011;1551;51.046;7.010;2023-03-16T12:46:48;3.03;;;1.90;;
3081;SDS011;1551;51.046;7.010;2023-03-16T12:49:44;4.80;;;2.42;;
3081;SDS011;1551;51.046;7.010;2023-03-16T12:58:26;4.43;;;1.70;;
3081;SDS011;1551;51.046;7.010;2023-03-16T13:01:16;4.13;;;2.13;;
3081;SDS011;1551;51.046;7.010;2023-03-16T13:04:15;3.50;;;2.00;;
3081;SDS011;1551;51.046;7.010;2023-03-16T13:07:15;3.58;;;2.30;;
3081;SDS011;1551;51.046;7.010;2023-03-16T13:10:08;4.30;;;2.42;;
3081;SDS011;1551;51.046;7.010;2023-03-16T13:13:14;3.47;;;1.90;;
3081;SDS011;1551;51.046;7.010;2023-03-16T13:16:07;3.80;;;2.08;;
3081;SDS011;1551;51.046;7.010;2023-03-16T13:19:21;3.30;;;2.10;;
3081;SDS011;1551;51.046;7.010;2023-03-16T13:22:26;4.80;;;2.10;;
3081;SDS011;1551;51.046;7.010;2023-03-16T13:28:16;4.15;;;2.60;;
3081;SDS011;1551;51.046;7.010;2023-03-16T13:31:05;3.47;;;2.00;;
3081;SDS011;1551;51.046;7.010;2023-03-16T13:34:11;4.20;;;2.13;;
3081;SDS011;1551;51.046;7.010;2023-03-16T13:37:03;5.50;;;2.20;;
3081;SDS011;1551;51.046;7.010;2023-03-16T13:39:52;4.78;;;1.90;;
3081;SDS011;1551;51.046;7.010;2023-03-16T13:42:44;3.90;;;2.10;;
3081;SDS011;1551;51.046;7.010;2023-03-16T13:45:37;3.53;;;2.17;;
3081;SDS011;1551;51.046;7.010;2023-03-16T13:48:26;3.75;;;1.92;;
3081;SDS011;1551;51.046;7.010;2023-03-16T13:51:16;4.60;;;2.03;;
3081;SDS011;1551;51.046;7.010;2023-03-16T13:54:20;3.00;;;1.75;;
3081;SDS011;1551;51.046;7.010;2023-03-16T13:57:15;3.28;;;1.77;;
3081;SDS011;1551;51.046;7.010;2023-03-16T14:03:12;4.25;;;2.00;;
3081;SDS011;1551;51.046;7.010;2023-03-16T14:06:05;3.97;;;2.53;;
3081;SDS011;1551;51.046;7.010;2023-03-16T14:08:59;3.20;;;2.07;;
3081;SDS011;1551;51.046;7.010;2023-03-16T14:11:51;3.00;;;1.70;;
3081;SDS011;1551;51.046;7.010;2023-03-16T14:14:44;3.83;;;1.83;;
3081;SDS011;1551;51.046;7.010;2023-03-16T14:17:42;4.65;;;1.70;;
3081;SDS011;1551;51.046;7.010;2023-03-16T14:20:31;3.53;;;1.80;;
3081;SDS011;1551;51.046;7.010;2023-03-16T14:23:21;5.00;;;2.10;;
3081;SDS011;1551;51.046;7.010;2023-03-16T14:26:14;4.30;;;2.10;;
3081;SDS011;1551;51.046;7.010;2023-03-16T14:29:28;3.40;;;2.00;;
3081;SDS011;1551;51.046;7.010;2023-03-16T14:32:20;3.30;;;1.80;;
3081;SDS011;1551;51.046;7.010;2023-03-16T14:35:18;3.45;;;1.90;;
3081;SDS011;1551;51.046;7.010;2023-03-16T14:41:20;4.70;;;1.90;;
3081;SDS011;1551;51.046;7.010;2023-03-16T14:44:19;3.20;;;2.08;;
3081;SDS011;1551;51.046;7.010;2023-03-16T14:47:13;4.30;;;1.90;;
3081;SDS011;1551;51.046;7.010;2023-03-16T14:50:14;3.08;;;1.63;;
3081;SDS011;1551;51.046;7.010;2023-03-16T14:53:07;2.70;;;1.73;;
3081;SDS011;1551;51.046;7.010;2023-03-16T14:55:57;3.08;;;2.00;;
3081;SDS011;1551;51.046;7.010;2023-03-16T14:58:47;4.30;;;2.40;;
3081;SDS011;1551;51.046;7.010;2023-03-16T15:01:36;3.70;;;2.00;;
3081;SDS011;1551;51.046;7.010;2023-03-16T15:04:27;3.33;;;1.87;;
3081;SDS011;1551;51.046;7.010;2023-03-16T15:07:27;4.00;;;1.80;;
3081;SDS011;1551;51.046;7.010;2023-03-16T15:10:20;3.20;;;1.80;;
3081;SDS011;1551;51.046;7.010;2023-03-16T15:13:17;3.28;;;1.98;;
3081;SDS011;1551;51.046;7.010;2023-03-16T15:16:30;3.30;;;1.90;;
3081;SDS011;1551;51.046;7.010;2023-03-16T15:19:18;3.40;;;1.90;;
3081;SDS011;1551;51.046;7.010;2023-03-16T15:22:08;5.07;;;2.08;;
3081;SDS011;1551;51.046;7.010;2023-03-16T15:25:01;3.45;;;2.00;;
3081;SDS011;1551;51.046;7.010;2023-03-16T15:28:10;5.00;;;2.00;;
3081;SDS011;1551;51.046;7.010;2023-03-16T15:31:02;4.32;;;1.90;;
3081;SDS011;1551;51.046;7.010;2023-03-16T15:33:51;4.07;;;1.80;;
3081;SDS011;1551;51.046;7.010;2023-03-16T15:36:41;3.25;;;1.92;;
3081;SDS011;1551;51.046;7.010;2023-03-16T15:39:31;3.72;;;2.10;;
3081;SDS011;1551;51.046;7.010;2023-03-16T15:42:20;3.20;;;2.00;;
3081;SDS011;1551;51.046;7.010;2023-03-16T15:45:13;3.40;;;2.10;;
3081;SDS011;1551;51.046;7.010;2023-03-16T15:48:05;4.68;;;2.20;;
3081;SDS011;1551;51.046;7.010;2023-03-16T15:50:55;3.78;;;2.20;;
3081;SDS011;1551;51.046;7.010;2023-03-16T15:53:48;4.50;;;2.40;;
3081;SDS011;1551;51.046;7.010;2023-03-16T15:56:40;3.72;;;2.05;;
3081;SDS011;1551;51.046;7.010;2023-03-16T15:59:33;3.70;;;2.10;;
3081;SDS011;1551;51.046;7.010;2023-03-16T16:02:28;5.28;;;2.50;;
3081;SDS011;1551;51.046;7.010;2023-03-16T16:05:18;3.90;;;2.67;;
3081;SDS011;1551;51.046;7.010;2023-03-16T16:08:08;3.58;;;2.50;;
3081;SDS011;1551;51.046;7.010;2023-03-16T16:10:56;4.25;;;2.50;;
3081;SDS011;1551;51.046;7.010;2023-03-16T16:13:45;3.47;;;2.30;;
3081;SDS011;1551;51.046;7.010;2023-03-16T16:16:35;4.57;;;3.17;;
3081;SDS011;1551;51.046;7.010;2023-03-16T16:19:26;4.63;;;2.45;;
3081;SDS011;1551;51.046;7.010;2023-03-16T16:22:16;4.22;;;2.80;;
3081;SDS011;1551;51.046;7.010;2023-03-16T16:25:05;3.83;;;2.27;;
3081;SDS011;1551;51.046;7.010;2023-03-16T16:27:55;3.47;;;2.53;;
3081;SDS011;1551;51.046;7.010;2023-03-16T16:30:44;4.65;;;2.80;;
3081;SDS011;1551;51.046;7.010;2023-03-16T16:33:34;3.60;;;2.50;;
3081;SDS011;1551;51.046;7.010;2023-03-16T16:36:23;4.13;;;2.60;;
3081;SDS011;1551;51.046;7.010;2023-03-16T16:39:12;4.32;;;2.10;;
3081;SDS011;1551;51.046;7.010;2023-03-16T16:42:01;5.22;;;2.22;;
3081;SDS011;1551;51.046;7.010;2023-03-16T16:44:51;3.40;;;2.17;;
3081;SDS011;1551;51.046;7.010;2023-03-16T16:47:41;3.72;;;2.70;;
3081;SDS011;1551;51.046;7.010;2023-03-16T16:50:30;5.13;;;3.10;;
3081;SDS011;1551;51.046;7.010;2023-03-16T16:53:20;3.67;;;2.40;;
3081;SDS011;1551;51.046;7.010;2023-03-16T16:56:11;4.55;;;2.40;;
3081;SDS011;1551;51.046;7.010;2023-03-16T16:59:06;3.78;;;2.67;;
3081;SDS011;1551;51.046;7.010;2023-03-16T17:02:02;4.05;;;2.45;;
3081;SDS011;1551;51.046;7.010;2023-03-16T17:05:13;5.82;;;2.60;;
3081;SDS011;1551;51.046;7.010;2023-03-16T17:08:12;4.07;;;2.80;;
3081;SDS011;1551;51.046;7.010;2023-03-16T17:11:02;6.00;;;3.30;;
3081;SDS011;1551;51.046;7.010;2023-03-16T17:13:52;5.20;;;2.77;;
3081;SDS011;1551;51.046;7.010;2023-03-16T17:16:42;4.72;;;2.97;;
3081;SDS011;1551;51.046;7.010;2023-03-16T17:19:32;5.70;;;2.90;;
3081;SDS011;1551;51.046;7.010;2023-03-16T17:22:22;5.00;;;3.50;;
3081;SDS011;1551;51.046;7.010;2023-03-16T17:25:14;5.10;;;3.50;;
3081;SDS011;1551;51.046;7.010;2023-03-16T17:28:04;4.47;;;3.00;;
3081;SDS011;1551;51.046;7.010;2023-03-16T17:30:53;5.03;;;3.00;;
3081;SDS011;1551;51.046;7.010;2023-03-16T17:33:42;3.70;;;2.92;;
3081;SDS011;1551;51.046;7.010;2023-03-16T17:36:32;4.75;;;3.20;;
3081;SDS011;1551;51.046;7.010;2023-03-16T17:39:25;5.88;;;3.30;;
3081;SDS011;1551;51.046;7.010;2023-03-16T17:42:17;5.53;;;3.13;;
3081;SDS011;1551;51.046;7.010;2023-03-16T17:45:14;5.45;;;2.70;;
3081;SDS011;1551;51.046;7.010;2023-03-16T17:48:10;6.03;;;2.55;;
3081;SDS011;1551;51.046;7.010;2023-03-16T17:51:00;5.10;;;3.15;;
3081;SDS011;1551;51.046;7.010;2023-03-16T17:53:50;4.47;;;2.55;;
3081;SDS011;1551;51.046;7.010;2023-03-16T17:56:39;3.70;;;2.60;;
3081;SDS011;1551;51.046;7.010;2023-03-16T17:59:29;4.00;;;2.30;;
3081;SDS011;1551;51.046;7.010;2023-03-16T18:03:03;3.90;;;2.67;;
3081;SDS011;1551;51.046;7.010;2023-03-16T18:05:37;7.28;;;3.45;;
3081;SDS011;1551;51.046;7.010;2023-03-16T18:08:27;4.03;;;2.90;;
3081;SDS011;1551;51.046;7.010;2023-03-16T18:14:23;4.55;;;2.55;;
3081;SDS011;1551;51.046;7.010;2023-03-16T18:17:26;4.40;;;2.60;;
3081;SDS011;1551;51.046;7.010;2023-03-16T18:20:21;3.50;;;2.40;;
3081;SDS011;1551;51.046;7.010;2023-03-16T18:23:20;3.60;;;2.20;;
3081;SDS011;1551;51.046;7.010;2023-03-16T18:26:11;3.88;;;2.17;;
3081;SDS011;1551;51.046;7.010;2023-03-16T18:29:00;2.80;;;2.17;;
3081;SDS011;1551;51.046;7.010;2023-03-16T18:31:49;4.20;;;2.30;;
3081;SDS011;1551;51.046;7.010;2023-03-16T18:34:40;3.70;;;2.50;;
3081;SDS011;1551;51.046;7.010;2023-03-16T18:37:29;5.00;;;2.50;;
3081;SDS011;1551;51.046;7.010;2023-03-16T18:40:18;4.70;;;2.50;;
3081;SDS011;1551;51.046;7.010;2023-03-16T18:43:11;3.60;;;2.35;;
3081;SDS011;1551;51.046;7.010;2023-03-16T18:46:03;3.47;;;2.03;;
3081;SDS011;1551;51.046;7.010;2023-03-16T18:48:53;3.10;;;2.00;;
3081;SDS011;1551;51.046;7.010;2023-03-16T18:51:47;3.42;;;1.92;;
3081;SDS011;1551;51.046;7.010;2023-03-16T18:54:38;2.92;;;2.13;;
3081;SDS011;1551;51.046;7.010;2023-03-16T18:57:27;3.10;;;2.00;;
3081;SDS011;1551;51.046;7.010;2023-03-16T19:00:20;4.50;;;2.25;;
3081;SDS011;1551;51.046;7.010;2023-03-16T19:03:20;5.20;;;2.20;;
3081;SDS011;1551;51.046;7.010;2023-03-16T19:06:18;3.88;;;2.20;;